sensor_id;sensor_type;location;lat;lon;timestamp;temperature;humidity
60234;DHT22;49514;43.538;-5.708;2023-03-16T00:01:59;12.70;99.90
60234;DHT22;49514;43.538;-5.708;2023-03-16T00:04:26;12.70;99.90
60234;DHT22;49514;43.538;-5.708;2023-03-16T00:06:52;12.60;99.90
60234;DHT22;49514;43.538;-5.708;2023-03-16T00:09:19;12.60;99.90
60234;DHT22;49514;43.538;-5.708;2023-03-16T00:11:45;12.50;99.90
60234;DHT22;49514;43.538;-5.708;2023-03-16T00:14:12;12.50;99.90
60234;DHT22;49514;43.538;-5.708;2023-03-16T00:16:38;12.40;99.90
60234;DHT22;49514;43.538;-5.708;2023-03-16T00:19:04;12.40;99.90
60234;DHT22;49514;43.538;-5.708;2023-03-16T00:21:31;12.40;99.90
60234;DHT22;49514;43.538;-5.708;2023-03-16T00:24:00;12.30;99.90
60234;DHT22;49514;43.538;-5.708;2023-03-16T00:26:28;12.30;99.90
60234;DHT22;49514;43.538;-5.708;2023-03-16T00:28:55;12.20;99.90
60234;DHT22;49514;43.538;-5.708;2023-03-16T00:31:22;12.20;99.90
60234;DHT22;49514;43.538;-5.708;2023-03-16T00:33:49;12.20;99.90
60234;DHT22;49514;43.538;-5.708;2023-03-16T00:36:16;12.20;99.90
60234;DHT22;49514;43.538;-5.708;2023-03-16T00:38:42;12.10;99.90
60234;DHT22;49514;43.538;-5.708;2023-03-16T00:41:13;12.20;99.90
60234;DHT22;49514;43.538;-5.708;2023-03-16T00:43:40;12.20;99.90
60234;DHT22;49514;43.538;-5.708;2023-03-16T00:46:08;12.20;99.90
60234;DHT22;49514;43.538;-5.708;2023-03-16T00:48:35;12.10;99.90
60234;DHT22;49514;43.538;-5.708;2023-03-16T00:51:02;12.10;99.90
60234;DHT22;49514;43.538;-5.708;2023-03-16T00:53:31;12.10;99.90
60234;DHT22;49514;43.538;-5.708;2023-03-16T00:55:58;12.00;99.90
60234;DHT22;49514;43.538;-5.708;2023-03-16T00:58:24;12.00;99.90
60234;DHT22;49514;43.538;-5.708;2023-03-16T01:00:51;12.00;99.90
60234;DHT22;49514;43.538;-5.708;2023-03-16T01:03:19;11.90;99.90
60234;DHT22;49514;43.538;-5.708;2023-03-16T01:05:45;11.90;99.90
60234;DHT22;49514;43.538;-5.708;2023-03-16T01:08:11;11.90;99.90
60234;DHT22;49514;43.538;-5.708;2023-03-16T01:10:38;11.90;99.90
60234;DHT22;49514;43.538;-5.708;2023-03-16T01:13:05;11.80;99.90
60234;DHT22;49514;43.538;-5.708;2023-03-16T01:15:32;11.70;99.90
60234;DHT22;49514;43.538;-5.708;2023-03-16T01:18:00;11.70;99.90
60234;DHT22;49514;43.538;-5.708;2023-03-16T01:20:27;11.70;99.90
60234;DHT22;49514;43.538;-5.708;2023-03-16T01:22:53;11.70;99.90
60234;DHT22;49514;43.538;-5.708;2023-03-16T01:25:19;11.60;99.90
60234;DHT22;49514;43.538;-5.708;2023-03-16T01:27:46;11.60;99.90
60234;DHT22;49514;43.538;-5.708;2023-03-16T01:30:13;11.50;99.90
60234;DHT22;49514;43.538;-5.708;2023-03-16T01:32:39;11.50;99.90
60234;DHT22;49514;43.538;-5.708;2023-03-16T01:35:07;11.50;99.90
60234;DHT22;49514;43.538;-5.708;2023-03-16T01:37:34;11.50;99.90
60234;DHT22;49514;43.538;-5.708;2023-03-16T01:40:12;11.50;99.90
60234;DHT22;49514;43.538;-5.708;2023-03-16T01:42:52;11.50;99.90
60234;DHT22;49514;43.538;-5.708;2023-03-16T01:48:10;11.30;99.90
60234;DHT22;49514;43.538;-5.708;2023-03-16T01:50:36;11.30;99.90
60234;DHT22;49514;43.538;-5.708;2023-03-16T01:53:03;11.30;99.90
60234;DHT22;49514;43.538;-5.708;2023-03-16T01:55:29;11.20;99.90
60234;DHT22;49514;43.538;-5.708;2023-03-16T01:57:56;11.10;99.90
60234;DHT22;49514;43.538;-5.708;2023-03-16T02:00:22;11.10;99.90
60234;DHT22;49514;43.538;-5.708;2023-03-16T02:03:14;11.10;99.90
60234;DHT22;49514;43.538;-5.708;2023-03-16T02:06:15;11.00;99.90
60234;DHT22;49514;43.538;-5.708;2023-03-16T02:08:47;11.00;99.90
60234;DHT22;49514;43.538;-5.708;2023-03-16T02:11:15;11.00;99.90
60234;DHT22;49514;43.538;-5.708;2023-03-16T02:14:11;11.00;99.90
60234;DHT22;49514;43.538;-5.708;2023-03-16T02:16:38;11.00;99.90
60234;DHT22;49514;43.538;-5.708;2023-03-16T02:19:09;10.90;99.90
60234;DHT22;49514;43.538;-5.708;2023-03-16T02:21:41;10.90;99.90
60234;DHT22;49514;43.538;-5.708;2023-03-16T02:24:11;10.90;99.90
60234;DHT22;49514;43.538;-5.708;2023-03-16T02:31:55;10.80;99.90
60234;DHT22;49514;43.538;-5.708;2023-03-16T02:34:22;10.70;99.90
60234;DHT22;49514;43.538;-5.708;2023-03-16T02:36:48;10.70;99.90
60234;DHT22;49514;43.538;-5.708;2023-03-16T02:39:21;10.70;99.90
60234;DHT22;49514;43.538;-5.708;2023-03-16T02:41:49;10.60;99.90
60234;DHT22;49514;43.538;-5.708;2023-03-16T02:44:18;10.60;99.90
60234;DHT22;49514;43.538;-5.708;2023-03-16T02:46:51;10.60;99.90
60234;DHT22;49514;43.538;-5.708;2023-03-16T02:49:20;10.60;99.90
60234;DHT22;49514;43.538;-5.708;2023-03-16T02:51:50;10.50;99.90
60234;DHT22;49514;43.538;-5.708;2023-03-16T02:54:17;10.60;99.90
60234;DHT22;49514;43.538;-5.708;2023-03-16T02:56:44;10.60;99.90
60234;DHT22;49514;43.538;-5.708;2023-03-16T02:59:11;10.60;99.90
60234;DHT22;49514;43.538;-5.708;2023-03-16T03:01:38;10.60;99.90
60234;DHT22;49514;43.538;-5.708;2023-03-16T03:04:04;10.60;99.90
60234;DHT22;49514;43.538;-5.708;2023-03-16T03:06:31;10.60;99.90
60234;DHT22;49514;43.538;-5.708;2023-03-16T03:08:59;10.60;99.90
60234;DHT22;49514;43.538;-5.708;2023-03-16T03:11:27;10.50;99.90
60234;DHT22;49514;43.538;-5.708;2023-03-16T03:13:54;10.50;99.90
60234;DHT22;49514;43.538;-5.708;2023-03-16T03:16:23;10.50;99.90
60234;DHT22;49514;43.538;-5.708;2023-03-16T03:18:50;10.50;99.90
60234;DHT22;49514;43.538;-5.708;2023-03-16T03:21:20;10.50;99.90
60234;DHT22;49514;43.538;-5.708;2023-03-16T03:23:46;10.50;99.90
60234;DHT22;49514;43.538;-5.708;2023-03-16T03:26:13;10.40;99.90
60234;DHT22;49514;43.538;-5.708;2023-03-16T03:28:43;10.40;99.90
60234;DHT22;49514;43.538;-5.708;2023-03-16T03:31:15;10.40;99.90
60234;DHT22;49514;43.538;-5.708;2023-03-16T03:33:43;10.40;99.90
60234;DHT22;49514;43.538;-5.708;2023-03-16T03:36:09;10.30;99.90
60234;DHT22;49514;43.538;-5.708;2023-03-16T03:38:37;10.20;99.90
60234;DHT22;49514;43.538;-5.708;2023-03-16T03:41:05;10.10;99.90
60234;DHT22;49514;43.538;-5.708;2023-03-16T03:43:37;10.10;99.90
60234;DHT22;49514;43.538;-5.708;2023-03-16T03:46:04;10.10;99.90
60234;DHT22;49514;43.538;-5.708;2023-03-16T03:48:33;10.10;99.90
60234;DHT22;49514;43.538;-5.708;2023-03-16T03:51:00;10.10;99.90
60234;DHT22;49514;43.538;-5.708;2023-03-16T03:53:42;10.10;99.90
60234;DHT22;49514;43.538;-5.708;2023-03-16T03:56:29;10.00;99.90
60234;DHT22;49514;43.538;-5.708;2023-03-16T03:58:55;10.00;99.90
60234;DHT22;49514;43.538;-5.708;2023-03-16T04:01:40;10.00;99.90
60234;DHT22;49514;43.538;-5.708;2023-03-16T04:04:07;10.00;99.90
60234;DHT22;49514;43.538;-5.708;2023-03-16T04:06:33;9.90;99.90
60234;DHT22;49514;43.538;-5.708;2023-03-16T04:09:00;9.90;99.90
60234;DHT22;49514;43.538;-5.708;2023-03-16T04:11:28;9.90;99.90
60234;DHT22;49514;43.538;-5.708;2023-03-16T04:13:54;9.90;99.90
60234;DHT22;49514;43.538;-5.708;2023-03-16T04:16:21;9.90;99.90
60234;DHT22;49514;43.538;-5.708;2023-03-16T04:18:53;9.90;99.90
60234;DHT22;49514;43.538;-5.708;2023-03-16T04:21:21;9.90;99.90
60234;DHT22;49514;43.538;-5.708;2023-03-16T04:23:49;9.90;99.90
60234;DHT22;49514;43.538;-5.708;2023-03-16T04:26:20;10.00;99.90
60234;DHT22;49514;43.538;-5.708;2023-03-16T04:28:47;10.00;99.90
60234;DHT22;49514;43.538;-5.708;2023-03-16T04:31:17;10.00;99.90
60234;DHT22;49514;43.538;-5.708;2023-03-16T04:33:45;10.00;99.90
60234;DHT22;49514;43.538;-5.708;2023-03-16T04:36:11;10.00;99.90
60234;DHT22;49514;43.538;-5.708;2023-03-16T04:38:38;10.00;99.90
60234;DHT22;49514;43.538;-5.708;2023-03-16T04:41:05;10.00;99.90
60234;DHT22;49514;43.538;-5.708;2023-03-16T04:43:36;10.00;99.90
60234;DHT22;49514;43.538;-5.708;2023-03-16T04:46:09;10.00;99.90
60234;DHT22;49514;43.538;-5.708;2023-03-16T04:48:36;9.90;99.90
60234;DHT22;49514;43.538;-5.708;2023-03-16T04:51:05;9.90;99.90
60234;DHT22;49514;43.538;-5.708;2023-03-16T04:53:34;9.90;99.90
60234;DHT22;49514;43.538;-5.708;2023-03-16T04:56:08;9.80;99.90
60234;DHT22;49514;43.538;-5.708;2023-03-16T04:58:35;9.80;99.90
60234;DHT22;49514;43.538;-5.708;2023-03-16T05:01:03;9.80;99.90
60234;DHT22;49514;43.538;-5.708;2023-03-16T05:03:31;9.80;99.90
60234;DHT22;49514;43.538;-5.708;2023-03-16T05:05:57;9.70;99.90
60234;DHT22;49514;43.538;-5.708;2023-03-16T05:08:27;9.80;99.90
60234;DHT22;49514;43.538;-5.708;2023-03-16T05:10:57;9.80;99.90
60234;DHT22;49514;43.538;-5.708;2023-03-16T05:13:24;9.80;99.90
60234;DHT22;49514;43.538;-5.708;2023-03-16T05:15:52;9.80;99.90
60234;DHT22;49514;43.538;-5.708;2023-03-16T05:18:25;9.80;99.90
60234;DHT22;49514;43.538;-5.708;2023-03-16T05:20:53;9.80;99.90
60234;DHT22;49514;43.538;-5.708;2023-03-16T05:23:21;9.80;99.90
60234;DHT22;49514;43.538;-5.708;2023-03-16T05:25:54;9.90;99.90
60234;DHT22;49514;43.538;-5.708;2023-03-16T05:28:26;9.90;99.90
60234;DHT22;49514;43.538;-5.708;2023-03-16T05:31:08;9.90;99.90
60234;DHT22;49514;43.538;-5.708;2023-03-16T05:33:40;10.00;99.90
60234;DHT22;49514;43.538;-5.708;2023-03-16T05:36:10;10.00;99.90
60234;DHT22;49514;43.538;-5.708;2023-03-16T05:38:40;10.00;99.90
60234;DHT22;49514;43.538;-5.708;2023-03-16T05:41:10;10.00;99.90
60234;DHT22;49514;43.538;-5.708;2023-03-16T05:43:57;10.10;99.90
60234;DHT22;49514;43.538;-5.708;2023-03-16T05:46:28;10.10;99.90
60234;DHT22;49514;43.538;-5.708;2023-03-16T05:48:55;10.20;99.90
60234;DHT22;49514;43.538;-5.708;2023-03-16T05:51:22;10.30;99.90
60234;DHT22;49514;43.538;-5.708;2023-03-16T05:53:52;10.40;99.90
60234;DHT22;49514;43.538;-5.708;2023-03-16T05:56:29;10.50;99.90
60234;DHT22;49514;43.538;-5.708;2023-03-16T05:58:56;10.60;99.90
60234;DHT22;49514;43.538;-5.708;2023-03-16T06:01:25;10.80;99.90
60234;DHT22;49514;43.538;-5.708;2023-03-16T06:03:52;10.80;99.90
60234;DHT22;49514;43.538;-5.708;2023-03-16T06:06:22;10.90;99.90
60234;DHT22;49514;43.538;-5.708;2023-03-16T06:09:04;10.90;99.90
60234;DHT22;49514;43.538;-5.708;2023-03-16T06:11:31;10.90;99.90
60234;DHT22;49514;43.538;-5.708;2023-03-16T06:14:00;10.90;99.90
60234;DHT22;49514;43.538;-5.708;2023-03-16T06:16:26;10.90;99.90
60234;DHT22;49514;43.538;-5.708;2023-03-16T06:18:53;10.90;99.90
60234;DHT22;49514;43.538;-5.708;2023-03-16T06:21:22;10.90;99.90
60234;DHT22;49514;43.538;-5.708;2023-03-16T06:23:52;10.90;99.90
60234;DHT22;49514;43.538;-5.708;2023-03-16T06:26:20;10.90;99.90
60234;DHT22;49514;43.538;-5.708;2023-03-16T06:28:48;10.90;99.90
60234;DHT22;49514;43.538;-5.708;2023-03-16T06:31:15;10.90;99.90
60234;DHT22;49514;43.538;-5.708;2023-03-16T06:33:44;10.80;99.90
60234;DHT22;49514;43.538;-5.708;2023-03-16T06:36:11;10.80;99.90
60234;DHT22;49514;43.538;-5.708;2023-03-16T06:38:43;10.80;99.90
60234;DHT22;49514;43.538;-5.708;2023-03-16T06:41:32;10.80;99.90
60234;DHT22;49514;43.538;-5.708;2023-03-16T06:44:01;10.90;99.90
60234;DHT22;49514;43.538;-5.708;2023-03-16T06:46:28;10.80;99.90
60234;DHT22;49514;43.538;-5.708;2023-03-16T06:48:57;10.80;99.90
60234;DHT22;49514;43.538;-5.708;2023-03-16T06:51:24;10.80;99.90
60234;DHT22;49514;43.538;-5.708;2023-03-16T06:53:51;10.90;99.90
60234;DHT22;49514;43.538;-5.708;2023-03-16T06:56:18;10.90;99.90
60234;DHT22;49514;43.538;-5.708;2023-03-16T06:58:46;10.90;99.90
60234;DHT22;49514;43.538;-5.708;2023-03-16T07:01:13;10.90;99.90
60234;DHT22;49514;43.538;-5.708;2023-03-16T07:03:39;11.00;99.90
60234;DHT22;49514;43.538;-5.708;2023-03-16T07:06:16;11.00;99.90
60234;DHT22;49514;43.538;-5.708;2023-03-16T07:08:42;11.10;99.90
60234;DHT22;49514;43.538;-5.708;2023-03-16T07:11:10;11.10;99.90
60234;DHT22;49514;43.538;-5.708;2023-03-16T07:13:37;11.20;99.90
60234;DHT22;49514;43.538;-5.708;2023-03-16T07:16:04;11.20;99.90
60234;DHT22;49514;43.538;-5.708;2023-03-16T07:18:31;11.20;99.90
60234;DHT22;49514;43.538;-5.708;2023-03-16T07:20:58;11.30;99.90
60234;DHT22;49514;43.538;-5.708;2023-03-16T07:23:25;11.30;99.90
60234;DHT22;49514;43.538;-5.708;2023-03-16T07:25:57;11.30;99.90
60234;DHT22;49514;43.538;-5.708;2023-03-16T07:28:24;11.30;99.90
60234;DHT22;49514;43.538;-5.708;2023-03-16T07:30:51;11.40;99.90
60234;DHT22;49514;43.538;-5.708;2023-03-16T07:33:19;11.50;99.90
60234;DHT22;49514;43.538;-5.708;2023-03-16T07:35:46;11.50;99.90
60234;DHT22;49514;43.538;-5.708;2023-03-16T07:38:13;11.60;99.90
60234;DHT22;49514;43.538;-5.708;2023-03-16T07:40:40;11.60;99.90
60234;DHT22;49514;43.538;-5.708;2023-03-16T07:43:14;11.60;99.90
60234;DHT22;49514;43.538;-5.708;2023-03-16T07:45:50;11.70;99.90
60234;DHT22;49514;43.538;-5.708;2023-03-16T07:48:18;11.70;99.90
60234;DHT22;49514;43.538;-5.708;2023-03-16T07:50:53;11.80;99.90
60234;DHT22;49514;43.538;-5.708;2023-03-16T07:53:20;11.80;99.90
60234;DHT22;49514;43.538;-5.708;2023-03-16T07:55:51;11.90;99.90
60234;DHT22;49514;43.538;-5.708;2023-03-16T07:58:18;12.00;99.90
60234;DHT22;49514;43.538;-5.708;2023-03-16T08:00:47;12.00;99.90
60234;DHT22;49514;43.538;-5.708;2023-03-16T08:03:14;12.10;99.90
60234;DHT22;49514;43.538;-5.708;2023-03-16T08:05:41;12.10;99.90
60234;DHT22;49514;43.538;-5.708;2023-03-16T08:08:13;12.30;99.90
60234;DHT22;49514;43.538;-5.708;2023-03-16T08:10:41;12.30;99.90
60234;DHT22;49514;43.538;-5.708;2023-03-16T08:13:18;12.40;99.90
60234;DHT22;49514;43.538;-5.708;2023-03-16T08:15:49;12.50;99.90
60234;DHT22;49514;43.538;-5.708;2023-03-16T08:18:30;12.60;99.90
60234;DHT22;49514;43.538;-5.708;2023-03-16T08:20:57;12.70;99.90
60234;DHT22;49514;43.538;-5.708;2023-03-16T08:23:25;12.70;99.90
60234;DHT22;49514;43.538;-5.708;2023-03-16T08:25:53;12.80;99.90
60234;DHT22;49514;43.538;-5.708;2023-03-16T08:28:22;12.80;99.90
60234;DHT22;49514;43.538;-5.708;2023-03-16T08:30:52;12.90;99.90
60234;DHT22;49514;43.538;-5.708;2023-03-16T08:33:37;13.00;99.90
60234;DHT22;49514;43.538;-5.708;2023-03-16T08:36:05;13.20;99.90
60234;DHT22;49514;43.538;-5.708;2023-03-16T08:38:32;13.30;99.90
60234;DHT22;49514;43.538;-5.708;2023-03-16T08:41:03;13.40;99.90
60234;DHT22;49514;43.538;-5.708;2023-03-16T08:43:31;13.40;99.90
60234;DHT22;49514;43.538;-5.708;2023-03-16T08:45:57;13.50;99.90
60234;DHT22;49514;43.538;-5.708;2023-03-16T08:48:28;13.70;99.90
60234;DHT22;49514;43.538;-5.708;2023-03-16T08:50:55;13.80;99.90
60234;DHT22;49514;43.538;-5.708;2023-03-16T08:53:21;14.00;99.90
60234;DHT22;49514;43.538;-5.708;2023-03-16T08:55:48;14.20;99.90
60234;DHT22;49514;43.538;-5.708;2023-03-16T08:58:15;14.20;99.90
60234;DHT22;49514;43.538;-5.708;2023-03-16T09:00:41;14.30;99.90
60234;DHT22;49514;43.538;-5.708;2023-03-16T09:03:08;14.40;99.90
60234;DHT22;49514;43.538;-5.708;2023-03-16T09:05:35;14.60;99.90
60234;DHT22;49514;43.538;-5.708;2023-03-16T09:08:02;14.70;99.90
60234;DHT22;49514;43.538;-5.708;2023-03-16T09:10:30;14.70;99.90
60234;DHT22;49514;43.538;-5.708;2023-03-16T09:12:58;14.90;99.90
60234;DHT22;49514;43.538;-5.708;2023-03-16T09:15:25;15.00;99.90
60234;DHT22;49514;43.538;-5.708;2023-03-16T09:17:52;15.10;99.90
60234;DHT22;49514;43.538;-5.708;2023-03-16T09:20:19;15.20;99.90
60234;DHT22;49514;43.538;-5.708;2023-03-16T09:22:46;15.30;99.90
60234;DHT22;49514;43.538;-5.708;2023-03-16T09:25:13;15.30;99.90
60234;DHT22;49514;43.538;-5.708;2023-03-16T09:27:40;15.30;99.90
60234;DHT22;49514;43.538;-5.708;2023-03-16T09:30:08;15.40;99.90
60234;DHT22;49514;43.538;-5.708;2023-03-16T09:32:35;15.50;99.90
60234;DHT22;49514;43.538;-5.708;2023-03-16T09:35:03;15.70;99.90
60234;DHT22;49514;43.538;-5.708;2023-03-16T09:37:32;15.70;99.90
60234;DHT22;49514;43.538;-5.708;2023-03-16T09:39:58;15.80;99.90
60234;DHT22;49514;43.538;-5.708;2023-03-16T09:42:36;15.90;99.90
60234;DHT22;49514;43.538;-5.708;2023-03-16T09:45:25;16.00;99.90
60234;DHT22;49514;43.538;-5.708;2023-03-16T09:48:00;16.10;99.90
60234;DHT22;49514;43.538;-5.708;2023-03-16T09:50:33;16.10;99.90
60234;DHT22;49514;43.538;-5.708;2023-03-16T09:53:19;16.10;99.90
60234;DHT22;49514;43.538;-5.708;2023-03-16T09:55:52;16.20;99.90
60234;DHT22;49514;43.538;-5.708;2023-03-16T09:58:21;16.20;99.90
60234;DHT22;49514;43.538;-5.708;2023-03-16T10:04:05;16.40;99.90
60234;DHT22;49514;43.538;-5.708;2023-03-16T10:09:37;16.70;99.90
60234;DHT22;49514;43.538;-5.708;2023-03-16T10:12:08;16.80;99.90
60234;DHT22;49514;43.538;-5.708;2023-03-16T10:20:33;17.20;99.90
60234;DHT22;49514;43.538;-5.708;2023-03-16T10:23:12;17.40;99.90
60234;DHT22;49514;43.538;-5.708;2023-03-16T10:25:48;17.40;99.90
60234;DHT22;49514;43.538;-5.708;2023-03-16T10:28:18;17.50;99.90
60234;DHT22;49514;43.538;-5.708;2023-03-16T10:30:47;17.60;99.90
60234;DHT22;49514;43.538;-5.708;2023-03-16T10:33:26;17.60;99.90
60234;DHT22;49514;43.538;-5.708;2023-03-16T10:38:38;17.90;99.90
60234;DHT22;49514;43.538;-5.708;2023-03-16T10:44:02;18.20;99.90
60234;DHT22;49514;43.538;-5.708;2023-03-16T10:47:02;18.30;99.90
60234;DHT22;49514;43.538;-5.708;2023-03-16T10:49:38;18.20;99.90
60234;DHT22;49514;43.538;-5.708;2023-03-16T10:52:34;18.20;99.90
60234;DHT22;49514;43.538;-5.708;2023-03-16T10:55:10;18.40;99.90
60234;DHT22;49514;43.538;-5.708;2023-03-16T10:57:41;18.70;99.90
60234;DHT22;49514;43.538;-5.708;2023-03-16T11:00:14;18.80;99.90
60234;DHT22;49514;43.538;-5.708;2023-03-16T11:02:42;19.10;99.90
60234;DHT22;49514;43.538;-5.708;2023-03-16T11:10:34;19.60;99.90
60234;DHT22;49514;43.538;-5.708;2023-03-16T11:13:16;19.70;99.90
60234;DHT22;49514;43.538;-5.708;2023-03-16T11:16:01;19.80;99.90
60234;DHT22;49514;43.538;-5.708;2023-03-16T11:18:43;20.00;99.90
60234;DHT22;49514;43.538;-5.708;2023-03-16T11:21:43;20.10;99.90
60234;DHT22;49514;43.538;-5.708;2023-03-16T11:26:53;20.40;99.90
60234;DHT22;49514;43.538;-5.708;2023-03-16T11:29:23;20.50;99.90
60234;DHT22;49514;43.538;-5.708;2023-03-16T11:32:04;20.30;99.90
60234;DHT22;49514;43.538;-5.708;2023-03-16T11:34:36;20.60;99.90
60234;DHT22;49514;43.538;-5.708;2023-03-16T11:40:01;20.30;99.90
60234;DHT22;49514;43.538;-5.708;2023-03-16T11:48:55;20.50;99.90
60234;DHT22;49514;43.538;-5.708;2023-03-16T11:54:34;20.50;99.90
60234;DHT22;49514;43.538;-5.708;2023-03-16T11:57:27;20.60;99.90
60234;DHT22;49514;43.538;-5.708;2023-03-16T12:00:26;20.70;99.90
60234;DHT22;49514;43.538;-5.708;2023-03-16T12:05:47;20.80;99.90
60234;DHT22;49514;43.538;-5.708;2023-03-16T12:11:26;20.90;99.90
60234;DHT22;49514;43.538;-5.708;2023-03-16T12:14:10;20.90;99.90
60234;DHT22;49514;43.538;-5.708;2023-03-16T12:20:04;21.60;99.90
60234;DHT22;49514;43.538;-5.708;2023-03-16T12:22:36;21.90;99.90
60234;DHT22;49514;43.538;-5.708;2023-03-16T12:25:15;22.10;99.90
60234;DHT22;49514;43.538;-5.708;2023-03-16T12:27:44;22.20;99.90
60234;DHT22;49514;43.538;-5.708;2023-03-16T12:35:35;22.80;99.90
60234;DHT22;49514;43.538;-5.708;2023-03-16T12:46:10;22.90;99.90
60234;DHT22;49514;43.538;-5.708;2023-03-16T12:48:40;23.40;99.90
60234;DHT22;49514;43.538;-5.708;2023-03-16T12:51:08;24.30;99.90
60234;DHT22;49514;43.538;-5.708;2023-03-16T12:53:42;25.00;99.90
60234;DHT22;49514;43.538;-5.708;2023-03-16T12:56:10;26.50;99.90
60234;DHT22;49514;43.538;-5.708;2023-03-16T12:58:41;27.30;99.90
60234;DHT22;49514;43.538;-5.708;2023-03-16T13:01:09;28.20;99.50
60234;DHT22;49514;43.538;-5.708;2023-03-16T13:03:36;29.00;97.90
60234;DHT22;49514;43.538;-5.708;2023-03-16T13:06:03;29.80;98.30
60234;DHT22;49514;43.538;-5.708;2023-03-16T13:08:42;30.40;94.80
60234;DHT22;49514;43.538;-5.708;2023-03-16T13:11:12;31.20;94.90
60234;DHT22;49514;43.538;-5.708;2023-03-16T13:13:50;32.80;93.10
60234;DHT22;49514;43.538;-5.708;2023-03-16T13:16:25;33.30;91.20
60234;DHT22;49514;43.538;-5.708;2023-03-16T13:18:53;34.80;87.50
60234;DHT22;49514;43.538;-5.708;2023-03-16T13:21:21;34.30;82.40
60234;DHT22;49514;43.538;-5.708;2023-03-16T13:23:58;33.30;81.50
60234;DHT22;49514;43.538;-5.708;2023-03-16T13:29:04;30.40;84.10
60234;DHT22;49514;43.538;-5.708;2023-03-16T13:33:59;28.30;89.80
60234;DHT22;49514;43.538;-5.708;2023-03-16T13:36:26;27.90;90.80
60234;DHT22;49514;43.538;-5.708;2023-03-16T13:41:56;27.70;90.80
60234;DHT22;49514;43.538;-5.708;2023-03-16T13:44:24;27.90;91.10
60234;DHT22;49514;43.538;-5.708;2023-03-16T13:46:51;26.90;90.80
60234;DHT22;49514;43.538;-5.708;2023-03-16T13:49:18;26.30;91.60
60234;DHT22;49514;43.538;-5.708;2023-03-16T13:51:45;25.50;92.50
60234;DHT22;49514;43.538;-5.708;2023-03-16T13:54:17;24.80;93.90
60234;DHT22;49514;43.538;-5.708;2023-03-16T13:56:44;24.20;95.00
60234;DHT22;49514;43.538;-5.708;2023-03-16T13:59:11;23.90;95.80
60234;DHT22;49514;43.538;-5.708;2023-03-16T14:01:38;24.00;95.90
60234;DHT22;49514;43.538;-5.708;2023-03-16T14:04:11;24.40;96.20
60234;DHT22;49514;43.538;-5.708;2023-03-16T14:06:56;26.50;94.70
60234;DHT22;49514;43.538;-5.708;2023-03-16T14:09:24;28.80;92.90
60234;DHT22;49514;43.538;-5.708;2023-03-16T14:11:52;30.30;87.90
60234;DHT22;49514;43.538;-5.708;2023-03-16T14:14:22;30.00;85.20
60234;DHT22;49514;43.538;-5.708;2023-03-16T14:16:50;28.90;84.20
60234;DHT22;49514;43.538;-5.708;2023-03-16T14:19:19;29.60;85.50
60234;DHT22;49514;43.538;-5.708;2023-03-16T14:21:47;31.50;83.00
60234;DHT22;49514;43.538;-5.708;2023-03-16T14:26:46;35.30;76.80
60234;DHT22;49514;43.538;-5.708;2023-03-16T14:29:26;36.10;69.00
60234;DHT22;49514;43.538;-5.708;2023-03-16T14:31:53;36.80;68.00
60234;DHT22;49514;43.538;-5.708;2023-03-16T14:34:25;37.30;66.30
60234;DHT22;49514;43.538;-5.708;2023-03-16T14:37:08;36.50;67.20
60234;DHT22;49514;43.538;-5.708;2023-03-16T14:39:35;34.90;65.70
60234;DHT22;49514;43.538;-5.708;2023-03-16T14:42:03;33.10;66.40
60234;DHT22;49514;43.538;-5.708;2023-03-16T14:44:31;31.00;67.90
60234;DHT22;49514;43.538;-5.708;2023-03-16T14:46:58;28.70;71.20
60234;DHT22;49514;43.538;-5.708;2023-03-16T14:49:34;27.20;74.40
60234;DHT22;49514;43.538;-5.708;2023-03-16T14:52:27;25.90;78.10
60234;DHT22;49514;43.538;-5.708;2023-03-16T14:54:57;25.00;81.60
60234;DHT22;49514;43.538;-5.708;2023-03-16T14:57:24;23.80;87.80
60234;DHT22;49514;43.538;-5.708;2023-03-16T14:59:52;23.40;90.40
60234;DHT22;49514;43.538;-5.708;2023-03-16T15:02:30;22.90;92.10
60234;DHT22;49514;43.538;-5.708;2023-03-16T15:04:59;22.20;93.50
60234;DHT22;49514;43.538;-5.708;2023-03-16T15:09:59;22.10;94.90
60234;DHT22;49514;43.538;-5.708;2023-03-16T15:12:31;21.70;96.50
60234;DHT22;49514;43.538;-5.708;2023-03-16T15:14:59;21.70;96.70
60234;DHT22;49514;43.538;-5.708;2023-03-16T15:17:44;21.40;97.60
60234;DHT22;49514;43.538;-5.708;2023-03-16T15:20:14;21.30;98.30
60234;DHT22;49514;43.538;-5.708;2023-03-16T15:22:42;21.10;98.70
60234;DHT22;49514;43.538;-5.708;2023-03-16T15:25:32;20.90;99.80
60234;DHT22;49514;43.538;-5.708;2023-03-16T15:28:10;20.50;99.90
60234;DHT22;49514;43.538;-5.708;2023-03-16T15:30:38;20.60;99.90
60234;DHT22;49514;43.538;-5.708;2023-03-16T15:33:09;20.50;99.90
60234;DHT22;49514;43.538;-5.708;2023-03-16T15:35:36;20.20;99.90
60234;DHT22;49514;43.538;-5.708;2023-03-16T15:38:05;20.10;99.90
60234;DHT22;49514;43.538;-5.708;2023-03-16T15:43:02;19.70;99.90
60234;DHT22;49514;43.538;-5.708;2023-03-16T15:45:30;19.40;99.90
60234;DHT22;49514;43.538;-5.708;2023-03-16T15:47:57;19.30;99.90
60234;DHT22;49514;43.538;-5.708;2023-03-16T15:50:25;19.10;99.90
60234;DHT22;49514;43.538;-5.708;2023-03-16T15:52:56;18.90;99.90
60234;DHT22;49514;43.538;-5.708;2023-03-16T15:55:44;18.90;99.90
60234;DHT22;49514;43.538;-5.708;2023-03-16T15:58:20;18.80;99.90
60234;DHT22;49514;43.538;-5.708;2023-03-16T16:00:50;18.70;99.90
60234;DHT22;49514;43.538;-5.708;2023-03-16T16:03:20;18.60;99.90
60234;DHT22;49514;43.538;-5.708;2023-03-16T16:05:48;18.80;99.90
60234;DHT22;49514;43.538;-5.708;2023-03-16T16:08:15;18.90;99.90
60234;DHT22;49514;43.538;-5.708;2023-03-16T16:10:42;19.20;99.90
60234;DHT22;49514;43.538;-5.708;2023-03-16T16:13:29;19.30;99.90
60234;DHT22;49514;43.538;-5.708;2023-03-16T16:15:56;19.20;99.90
60234;DHT22;49514;43.538;-5.708;2023-03-16T16:18:33;19.10;99.90
60234;DHT22;49514;43.538;-5.708;2023-03-16T16:21:03;19.20;99.90
60234;DHT22;49514;43.538;-5.708;2023-03-16T16:23:31;19.00;99.90
60234;DHT22;49514;43.538;-5.708;2023-03-16T16:26:01;18.70;99.90
60234;DHT22;49514;43.538;-5.708;2023-03-16T16:28:31;18.60;99.90
60234;DHT22;49514;43.538;-5.708;2023-03-16T16:30:59;18.60;99.90
60234;DHT22;49514;43.538;-5.708;2023-03-16T16:33:29;18.60;99.90
60234;DHT22;49514;43.538;-5.708;2023-03-16T16:35:58;18.70;99.90
60234;DHT22;49514;43.538;-5.708;2023-03-16T16:38:26;18.60;99.90
60234;DHT22;49514;43.538;-5.708;2023-03-16T16:40:54;18.50;99.90
60234;DHT22;49514;43.538;-5.708;2023-03-16T16:43:37;18.70;99.90
60234;DHT22;49514;43.538;-5.708;2023-03-16T16:46:32;19.10;99.90
60234;DHT22;49514;43.538;-5.708;2023-03-16T16:51:31;18.80;99.90
60234;DHT22;49514;43.538;-5.708;2023-03-16T16:53:59;18.70;99.90
60234;DHT22;49514;43.538;-5.708;2023-03-16T16:56:31;18.50;99.90
60234;DHT22;49514;43.538;-5.708;2023-03-16T16:59:33;18.20;99.90
60234;DHT22;49514;43.538;-5.708;2023-03-16T17:02:22;17.90;99.90
60234;DHT22;49514;43.538;-5.708;2023-03-16T17:04:53;17.70;99.90
60234;DHT22;49514;43.538;-5.708;2023-03-16T17:07:19;17.70;99.90